Portada
METAR-TAF:

METAR-TAF

Aeroports :

Aeroport Internacional de Mitiga

Trípoli, Líbia

latitud: 32-54N, longitud: 13-17E, altitud: 11 m

METAR: manca

Hora: 04:38 (02:38 UTC)

Pronòstic

L'informe es va fer fa 21 hores i 38 minuts, a les 05:00 UTC
Pronòstic vàlid del 15 a les 06 UTC al 16 a les 06 UTC
Vent 10 kt del Est
Visibilitat: 8000 m
Evolucionant progressivament
l' 15 a les 09 UTC al 15 a les 11 UTC
Vent 10 kt del Nord/Nord-Est
Visibilitat 10 km o més
sense núvols per sota de 1500 mi sense presència de cumulonimbus.
Evolucionant progressivament
l' 15 a les 21 UTC al 15 a les 23 UTC
Vent 2 kt amb direcció variable
Visibilitat: 8000 m
Escasses núvols a una alçada de 2500 ft

TAF: HLLM 150500Z 1506/1606 09010KT 8000 NSC BECMG 1509/1511 03010KT CAVOK BECMG 1521/1523 VRB02KT 8000 FEW025

Observacions i pronòstics meteorològics de més de 4000 aeroports (METAR i TAF).

Les estacions disponibles són els punts grocs i vermells al mapa.

Posi el ratolí al punt desitjat per veure el nom de l'estació.

Feu clic per veure les observacions i els pronòstics meteorològics.

Per canviar el mapa: feu clic els botons verds amb una creu de color negre per apropar; al botó verd amb un guió per allunyar la imatge; o en les fletxes verdes per a mapes adjacents.


METAR-TAF: